Impacts METAR Board
IDs:

KSTL - St Louis/Lambert Int, MO, US

Updated at: 2100 UTC 01 Feb 2023
Potential Impact None Slight Moderate High
Time 01/09Z 01/10Z 01/11Z 01/12Z 01/13Z 01/14Z 01/15Z 01/16Z 01/17Z 01/18Z 01/19Z 01/20Z 01/21Z
Temp17 16 16 17 18 19 22 25 27 29 32 32 32
Dewpt7 8 8 10 10 11 10 6 8 8 9 9 7
Altim30.41 30.41 30.42 30.42 30.42 30.43 30.44 30.45 30.43 30.41 30.38 30.33 30.33
VIS10 10 10 10 10 10 10 10 10 10 10 10 10
CIG250 250 250 250 250 250 250 250 250 -- 250 250 250
CoverBKNBKNBKNBKNBKNBKNBKNBKNBKNSCTBKNBKNBKN
FltCatVFRVFRVFRVFRVFRVFRVFRVFRVFRVFRVFRVFRVFR
WX--------------------------
WDir000000170013015019000
WSpd0 0 0 0 0 0 3 0 4 3 4 3 0
WGst-- -- -- -- -- -- -- -- -- -- -- -- --
Raw hourly METARs
KSTL 010851Z 00000KT 10SM BKN250 M08/M14 A3041 RMK AO2 SLP317 T10831139 55001 $
KSTL 010951Z 00000KT 10SM BKN250 M09/M13 A3041 RMK AO2 SLP315 T10891133 $
KSTL 011051Z 00000KT 10SM BKN250 M09/M13 A3042 RMK AO2 SLP318 T10891133 $
KSTL 011151Z 00000KT 10SM BKN250 M08/M12 A3042 RMK AO2 SLP319 T10831122 11067 21094 53002 $
KSTL 011251Z 00000KT 10SM BKN250 M08/M12 A3042 RMK AO2 SLP318 T10781122 $
KSTL 011351Z 00000KT 10SM FEW200 BKN250 M07/M12 A3043 RMK AO2 SLP320 T10721117 $
KSTL 011451Z 17003KT 10SM FEW200 BKN250 M06/M12 A3044 RMK AO2 SLP325 T10561122 53007 $
KSTL 011551Z 00000KT 10SM FEW200 BKN250 M04/M14 A3045 RMK AO2 SLP328 T10391144 $
KSTL 011651Z 13004KT 10SM SCT200 BKN250 M03/M13 A3043 RMK AO2 SLP321 T10281133 $
KSTL 011751Z 15003KT 10SM FEW200 SCT250 M02/M13 A3041 RMK AO2 SLP315 T10171133 11011 21083 58008 $
KSTL 011851Z 19004KT 10SM BKN250 00/M13 A3038 RMK AO2 SLP303 T00001128 $
KSTL 011951Z VRB03KT 10SM FEW200 BKN250 00/M13 A3033 RMK AO2 SLP286 T00001128 $
KSTL 012051Z 00000KT 10SM SCT150 SCT200 BKN250 00/M14 A3033 RMK AO2 SLP285 T00001139 56028 $



Page loaded:  21:22 UTC  |   01:22 PM Pacific  |   02:22 PM Mountain  |   03:22 PM Central  |   04:22 PM Eastern

 

ADVISORIES

FORECASTS

FORECASTS

OBSERVATIONS

USER TOOLS

ABOUT US